NKS2004 KMCO-KEWR
Flight info
| Callsign | NKS2004 |
|---|---|
| Flight time | N/A |
| Altitude | 37000 |
| Route | FATHE4 VIYAP Q87 ALWZZ OGRAE Q99 QUART PHLBO4 |
| Aircraft | A20N/M-SDE2E3FGHIRWXY/LB1 |
Departure
| Time | 2026-05-04 07:29 |
|---|---|
| Airport | Orlando International Airport (KMCO) |
Arrival
| Time | N/A |
|---|---|
| Airport | Newark Liberty International Airport (KEWR) |
| Time | Latitude | Longitude | Altitude | Speed | Heading |
|---|---|---|---|---|---|
| 2026-05-04 06:46 | 28.42518 | -81.30062 | 103 ft | 0 kts | 28° |
| 2026-05-04 07:14 | 28.42508 | -81.30068 | 103 ft | 4 kts | 34° |
| 2026-05-04 07:14 | 28.42488 | -81.30088 | 103 ft | 4 kts | 53° |
| 2026-05-04 07:15 | 28.42475 | -81.30114 | 102 ft | 4 kts | 72° |
| 2026-05-04 07:15 | 28.42470 | -81.30143 | 101 ft | 4 kts | 91° |
| 2026-05-04 07:15 | 28.42474 | -81.30172 | 100 ft | 3 kts | 117° |
| 2026-05-04 07:15 | 28.42475 | -81.30174 | 101 ft | 0 kts | 120° |
| 2026-05-04 07:20 | 28.42472 | -81.30168 | 100 ft | 2 kts | 120° |
| 2026-05-04 07:20 | 28.42462 | -81.30152 | 102 ft | 3 kts | 130° |
| 2026-05-04 07:22 | 28.42268 | -81.29791 | 102 ft | 12 kts | 179° |
| 2026-05-04 07:22 | 28.42181 | -81.29791 | 102 ft | 13 kts | 179° |
| 2026-05-04 07:23 | 28.42083 | -81.29789 | 102 ft | 15 kts | 179° |
| 2026-05-04 07:23 | 28.41976 | -81.29787 | 102 ft | 16 kts | 179° |
| 2026-05-04 07:23 | 28.41859 | -81.29785 | 102 ft | 18 kts | 179° |
| 2026-05-04 07:23 | 28.41731 | -81.29785 | 102 ft | 19 kts | 180° |
| 2026-05-04 07:24 | 28.41592 | -81.29784 | 102 ft | 21 kts | 179° |
| 2026-05-04 07:24 | 28.41441 | -81.29783 | 101 ft | 23 kts | 179° |
| 2026-05-04 07:24 | 28.41302 | -81.29782 | 101 ft | 7 kts | 179° |
| 2026-05-04 07:24 | 28.41246 | -81.29781 | 101 ft | 9 kts | 179° |
| 2026-05-04 07:25 | 28.41181 | -81.29780 | 101 ft | 10 kts | 179° |
| 2026-05-04 07:26 | 28.40825 | -81.29595 | 97 ft | 13 kts | 81° |
| 2026-05-04 07:27 | 28.40868 | -81.29562 | 98 ft | 0 kts | 357° |
| 2026-05-04 07:27 | 28.40870 | -81.29562 | 97 ft | 2 kts | 357° |
| 2026-05-04 07:27 | 28.41045 | -81.29570 | 99 ft | 59 kts | 360° |
| 2026-05-04 07:27 | 28.41661 | -81.29570 | 106 ft | 116 kts | 360° |
| 2026-05-04 07:28 | 28.42627 | -81.29575 | 102 ft | 160 kts | 360° |
| 2026-05-04 07:28 | 28.43783 | -81.29586 | 515 ft | 168 kts | 0° |
| 2026-05-04 07:28 | 28.45052 | -81.29440 | 629 ft | 203 kts | 19° |
| 2026-05-04 07:28 | 28.46424 | -81.28659 | 628 ft | 245 kts | 28° |
| 2026-05-04 07:29 | 28.47999 | -81.27652 | 1025 ft | 264 kts | 30° |
| 2026-05-04 07:29 | 28.49528 | -81.26646 | 1994 ft | 244 kts | 31° |
| 2026-05-04 07:29 | 28.50925 | -81.25742 | 2298 ft | 219 kts | 26° |
| 2026-05-04 07:29 | 28.52399 | -81.25306 | 2803 ft | 223 kts | 7° |
| 2026-05-04 07:30 | 28.53958 | -81.25195 | 3556 ft | 227 kts | 6° |
| 2026-05-04 07:30 | 28.55553 | -81.25132 | 4240 ft | 232 kts | 0° |
| 2026-05-04 07:30 | 28.57184 | -81.25180 | 4928 ft | 237 kts | 358° |
| 2026-05-04 07:30 | 28.58858 | -81.25268 | 5600 ft | 242 kts | 354° |
| 2026-05-04 07:31 | 28.60552 | -81.25466 | 6283 ft | 247 kts | 352° |
| 2026-05-04 07:31 | 28.62267 | -81.25717 | 6970 ft | 250 kts | 351° |
| 2026-05-04 07:33 | 28.75335 | -81.27639 | 10417 ft | 328 kts | 349° |
| 2026-05-04 07:33 | 28.77673 | -81.27969 | 10560 ft | 348 kts | 349° |
| 2026-05-04 07:33 | 28.80108 | -81.28305 | 11059 ft | 356 kts | 350° |
| 2026-05-04 07:33 | 28.82574 | -81.28639 | 11689 ft | 358 kts | 349° |
| 2026-05-04 07:34 | 28.85064 | -81.28966 | 12332 ft | 362 kts | 350° |
| 2026-05-04 07:34 | 28.87585 | -81.29226 | 12961 ft | 365 kts | 351° |
| 2026-05-04 07:34 | 28.90127 | -81.29437 | 13582 ft | 368 kts | 352° |
| 2026-05-04 07:34 | 28.92734 | -81.29633 | 14173 ft | 372 kts | 352° |
| 2026-05-04 07:35 | 28.95286 | -81.29823 | 14709 ft | 374 kts | 351° |
| 2026-05-04 07:35 | 28.97927 | -81.30027 | 15293 ft | 376 kts | 351° |
| 2026-05-04 07:35 | 29.00504 | -81.30241 | 15864 ft | 377 kts | 350° |
| 2026-05-04 07:35 | 29.03118 | -81.30506 | 16405 ft | 378 kts | 349° |
| 2026-05-04 07:36 | 29.05749 | -81.30808 | 16954 ft | 381 kts | 349° |
| 2026-05-04 07:36 | 29.08394 | -81.31126 | 17507 ft | 383 kts | 348° |
| 2026-05-04 07:38 | 29.27667 | -81.32419 | 21068 ft | 407 kts | 351° |
| 2026-05-04 07:38 | 29.30504 | -81.32583 | 21541 ft | 409 kts | 351° |
| 2026-05-04 07:38 | 29.33354 | -81.32757 | 21976 ft | 412 kts | 350° |
| 2026-05-04 07:38 | 29.36227 | -81.32938 | 22394 ft | 415 kts | 350° |
| 2026-05-04 07:39 | 29.39121 | -81.33119 | 22807 ft | 417 kts | 350° |
| 2026-05-04 07:39 | 29.42028 | -81.33298 | 23215 ft | 420 kts | 350° |
| 2026-05-04 07:39 | 29.44931 | -81.33476 | 23611 ft | 423 kts | 350° |
| 2026-05-04 07:39 | 29.47879 | -81.33656 | 23949 ft | 425 kts | 350° |
| 2026-05-04 07:40 | 29.50840 | -81.33833 | 24282 ft | 427 kts | 350° |
| 2026-05-04 07:40 | 29.53813 | -81.34010 | 24636 ft | 429 kts | 350° |
| 2026-05-04 07:40 | 29.56792 | -81.34186 | 25066 ft | 428 kts | 351° |
| 2026-05-04 07:40 | 29.59763 | -81.34360 | 25469 ft | 427 kts | 351° |
| 2026-05-04 07:41 | 29.62741 | -81.34541 | 25806 ft | 429 kts | 351° |
| 2026-05-04 07:41 | 29.65723 | -81.34724 | 26131 ft | 430 kts | 351° |
| 2026-05-04 07:41 | 29.68719 | -81.34902 | 26438 ft | 433 kts | 351° |
| 2026-05-04 07:41 | 29.71740 | -81.35073 | 26740 ft | 435 kts | 351° |
| 2026-05-04 07:42 | 29.74768 | -81.35243 | 27053 ft | 437 kts | 351° |
| 2026-05-04 07:42 | 29.77812 | -81.35414 | 27354 ft | 439 kts | 351° |
| 2026-05-04 07:42 | 29.80856 | -81.35586 | 27735 ft | 438 kts | 350° |
| 2026-05-04 07:42 | 29.83901 | -81.35759 | 28199 ft | 437 kts | 351° |
| 2026-05-04 07:43 | 29.86933 | -81.35930 | 28708 ft | 434 kts | 351° |
| 2026-05-04 07:43 | 29.89900 | -81.36099 | 29172 ft | 432 kts | 351° |
| 2026-05-04 07:43 | 29.92940 | -81.36271 | 29615 ft | 432 kts | 351° |
| 2026-05-04 07:43 | 29.95942 | -81.36444 | 30045 ft | 431 kts | 350° |
| 2026-05-04 07:44 | 29.98932 | -81.36619 | 30423 ft | 430 kts | 350° |
| 2026-05-04 07:44 | 30.01920 | -81.36794 | 30782 ft | 430 kts | 350° |
| 2026-05-04 07:44 | 30.04872 | -81.36966 | 31136 ft | 429 kts | 350° |
| 2026-05-04 07:44 | 30.07849 | -81.37139 | 31496 ft | 429 kts | 349° |
| 2026-05-04 07:45 | 30.10824 | -81.37312 | 31864 ft | 428 kts | 349° |
| 2026-05-04 07:45 | 30.13805 | -81.37483 | 32314 ft | 426 kts | 350° |
| 2026-05-04 07:45 | 30.16751 | -81.37651 | 32728 ft | 424 kts | 350° |
| 2026-05-04 07:45 | 30.19706 | -81.37820 | 33113 ft | 424 kts | 349° |
| 2026-05-04 07:46 | 30.22642 | -81.37990 | 33471 ft | 423 kts | 349° |
| 2026-05-04 07:46 | 30.25590 | -81.38158 | 33807 ft | 423 kts | 349° |
| 2026-05-04 07:46 | 30.28535 | -81.38326 | 34145 ft | 423 kts | 349° |
| 2026-05-04 07:46 | 30.31472 | -81.38494 | 34412 ft | 423 kts | 349° |
| 2026-05-04 07:47 | 30.34411 | -81.38668 | 34671 ft | 423 kts | 348° |